sensor_id;sensor_type;location;lat;lon;timestamp;pressure;altitude;pressure_sealevel;temperature;humidity
4576;BME280;2300;51.874;8.430;2023-12-20T00:01:11;100498.56;;;7.18;100.00
4576;BME280;2300;51.874;8.430;2023-12-20T00:03:38;100504.22;;;7.30;100.00
4576;BME280;2300;51.874;8.430;2023-12-20T00:06:05;100500.22;;;7.26;100.00
4576;BME280;2300;51.874;8.430;2023-12-20T00:08:32;100492.91;;;7.20;100.00
4576;BME280;2300;51.874;8.430;2023-12-20T00:11:00;100501.28;;;7.25;100.00
4576;BME280;2300;51.874;8.430;2023-12-20T00:13:26;100495.66;;;7.20;100.00
4576;BME280;2300;51.874;8.430;2023-12-20T00:15:53;100511.59;;;7.16;100.00
4576;BME280;2300;51.874;8.430;2023-12-20T00:18:21;100514.13;;;7.11;100.00
4576;BME280;2300;51.874;8.430;2023-12-20T00:20:48;100512.03;;;7.13;100.00
4576;BME280;2300;51.874;8.430;2023-12-20T00:23:15;100507.44;;;7.07;100.00
4576;BME280;2300;51.874;8.430;2023-12-20T00:25:41;100513.34;;;6.97;100.00
4576;BME280;2300;51.874;8.430;2023-12-20T00:28:08;100514.41;;;6.83;100.00
4576;BME280;2300;51.874;8.430;2023-12-20T00:30:35;100514.19;;;6.91;100.00
4576;BME280;2300;51.874;8.430;2023-12-20T00:33:02;100527.19;;;6.89;100.00
4576;BME280;2300;51.874;8.430;2023-12-20T00:35:31;100520.72;;;6.84;100.00
4576;BME280;2300;51.874;8.430;2023-12-20T00:37:58;100536.41;;;6.75;100.00
4576;BME280;2300;51.874;8.430;2023-12-20T00:40:25;100531.81;;;6.63;100.00
4576;BME280;2300;51.874;8.430;2023-12-20T00:42:52;100521.53;;;6.65;100.00
4576;BME280;2300;51.874;8.430;2023-12-20T00:45:17;100532.66;;;6.56;100.00
4576;BME280;2300;51.874;8.430;2023-12-20T00:47:45;100530.53;;;6.58;100.00
4576;BME280;2300;51.874;8.430;2023-12-20T00:50:11;100524.28;;;6.58;100.00
4576;BME280;2300;51.874;8.430;2023-12-20T00:52:39;100532.25;;;6.53;100.00
4576;BME280;2300;51.874;8.430;2023-12-20T00:55:06;100525.31;;;6.44;100.00
4576;BME280;2300;51.874;8.430;2023-12-20T00:57:33;100520.69;;;6.44;100.00
4576;BME280;2300;51.874;8.430;2023-12-20T00:59:59;100535.38;;;6.43;100.00
4576;BME280;2300;51.874;8.430;2023-12-20T01:02:26;100530.97;;;6.36;100.00
4576;BME280;2300;51.874;8.430;2023-12-20T01:04:53;100537.69;;;6.40;100.00
4576;BME280;2300;51.874;8.430;2023-12-20T01:07:19;100521.34;;;6.27;100.00
4576;BME280;2300;51.874;8.430;2023-12-20T01:09:47;100531.38;;;6.33;100.00
4576;BME280;2300;51.874;8.430;2023-12-20T01:12:14;100535.19;;;6.32;100.00
4576;BME280;2300;51.874;8.430;2023-12-20T01:14:41;100525.28;;;6.24;100.00
4576;BME280;2300;51.874;8.430;2023-12-20T01:17:07;100534.75;;;6.35;100.00
4576;BME280;2300;51.874;8.430;2023-12-20T01:19:34;100535.56;;;6.29;100.00
4576;BME280;2300;51.874;8.430;2023-12-20T01:22:01;100530.56;;;6.32;100.00
4576;BME280;2300;51.874;8.430;2023-12-20T01:24:27;100539.78;;;6.38;100.00
4576;BME280;2300;51.874;8.430;2023-12-20T01:26:55;100540.63;;;6.32;100.00
4576;BME280;2300;51.874;8.430;2023-12-20T01:29:22;100537.25;;;6.30;100.00
4576;BME280;2300;51.874;8.430;2023-12-20T01:31:49;100542.28;;;6.33;100.00
4576;BME280;2300;51.874;8.430;2023-12-20T01:34:17;100536.22;;;6.31;100.00
4576;BME280;2300;51.874;8.430;2023-12-20T01:36:43;100535.59;;;6.35;100.00
4576;BME280;2300;51.874;8.430;2023-12-20T01:39:10;100551.09;;;6.28;100.00
4576;BME280;2300;51.874;8.430;2023-12-20T01:41:37;100554.47;;;6.37;100.00
4576;BME280;2300;51.874;8.430;2023-12-20T01:44:05;100546.69;;;6.34;100.00
4576;BME280;2300;51.874;8.430;2023-12-20T01:46:31;100551.13;;;6.35;100.00
4576;BME280;2300;51.874;8.430;2023-12-20T01:48:58;100555.72;;;6.21;100.00
4576;BME280;2300;51.874;8.430;2023-12-20T01:51:25;100556.97;;;6.25;100.00
4576;BME280;2300;51.874;8.430;2023-12-20T01:53:54;100554.22;;;6.12;100.00
4576;BME280;2300;51.874;8.430;2023-12-20T01:56:21;100553.19;;;6.06;100.00
4576;BME280;2300;51.874;8.430;2023-12-20T01:58:48;100556.31;;;6.03;100.00
4576;BME280;2300;51.874;8.430;2023-12-20T02:01:16;100559.03;;;6.03;100.00
4576;BME280;2300;51.874;8.430;2023-12-20T02:03:44;100555.00;;;5.93;100.00
4576;BME280;2300;51.874;8.430;2023-12-20T02:06:11;100554.41;;;5.91;100.00
4576;BME280;2300;51.874;8.430;2023-12-20T02:08:38;100549.16;;;5.89;100.00
4576;BME280;2300;51.874;8.430;2023-12-20T02:11:04;100531.31;;;5.80;100.00
4576;BME280;2300;51.874;8.430;2023-12-20T02:13:31;100532.97;;;5.81;100.00
4576;BME280;2300;51.874;8.430;2023-12-20T02:15:57;100535.47;;;5.76;100.00
4576;BME280;2300;51.874;8.430;2023-12-20T02:18:25;100541.75;;;5.70;100.00
4576;BME280;2300;51.874;8.430;2023-12-20T02:20:52;100541.34;;;5.73;100.00
4576;BME280;2300;51.874;8.430;2023-12-20T02:23:20;100523.31;;;5.72;100.00
4576;BME280;2300;51.874;8.430;2023-12-20T02:25:47;100524.13;;;5.72;100.00
4576;BME280;2300;51.874;8.430;2023-12-20T02:28:13;100523.25;;;5.59;100.00
4576;BME280;2300;51.874;8.430;2023-12-20T02:30:40;100523.25;;;5.65;100.00
4576;BME280;2300;51.874;8.430;2023-12-20T02:33:10;100524.72;;;5.61;100.00
4576;BME280;2300;51.874;8.430;2023-12-20T02:35:38;100516.28;;;5.50;100.00
4576;BME280;2300;51.874;8.430;2023-12-20T02:38:04;100521.13;;;5.48;100.00
4576;BME280;2300;51.874;8.430;2023-12-20T02:40:32;100530.34;;;5.47;100.00
4576;BME280;2300;51.874;8.430;2023-12-20T02:42:59;100534.97;;;5.53;100.00
4576;BME280;2300;51.874;8.430;2023-12-20T02:45:26;100522.16;;;5.47;100.00
4576;BME280;2300;51.874;8.430;2023-12-20T02:47:53;100526.16;;;5.44;100.00
4576;BME280;2300;51.874;8.430;2023-12-20T02:50:20;100511.41;;;5.32;100.00
4576;BME280;2300;51.874;8.430;2023-12-20T02:52:46;100518.13;;;5.36;100.00
4576;BME280;2300;51.874;8.430;2023-12-20T02:55:13;100513.09;;;5.33;100.00
4576;BME280;2300;51.874;8.430;2023-12-20T02:57:41;100523.31;;;5.24;100.00
4576;BME280;2300;51.874;8.430;2023-12-20T03:00:08;100526.25;;;5.29;100.00
4576;BME280;2300;51.874;8.430;2023-12-20T03:02:36;100517.03;;;5.24;100.00
4576;BME280;2300;51.874;8.430;2023-12-20T03:05:03;100510.75;;;5.23;100.00
4576;BME280;2300;51.874;8.430;2023-12-20T03:07:29;100521.22;;;5.26;100.00
4576;BME280;2300;51.874;8.430;2023-12-20T03:09:56;100518.97;;;5.37;100.00
4576;BME280;2300;51.874;8.430;2023-12-20T03:12:23;100527.38;;;5.42;100.00
4576;BME280;2300;51.874;8.430;2023-12-20T03:14:51;100513.06;;;5.26;100.00
4576;BME280;2300;51.874;8.430;2023-12-20T03:17:17;100516.44;;;5.35;100.00
4576;BME280;2300;51.874;8.430;2023-12-20T03:19:44;100508.88;;;5.30;100.00
4576;BME280;2300;51.874;8.430;2023-12-20T03:22:11;100515.63;;;5.41;100.00
4576;BME280;2300;51.874;8.430;2023-12-20T03:24:38;100527.41;;;5.55;100.00
4576;BME280;2300;51.874;8.430;2023-12-20T03:27:04;100521.97;;;5.55;100.00
4576;BME280;2300;51.874;8.430;2023-12-20T03:29:31;100526.84;;;5.59;100.00
4576;BME280;2300;51.874;8.430;2023-12-20T03:31:59;100542.94;;;5.61;100.00
4576;BME280;2300;51.874;8.430;2023-12-20T03:34:26;100534.78;;;5.61;100.00
4576;BME280;2300;51.874;8.430;2023-12-20T03:36:54;100527.19;;;5.50;100.00
4576;BME280;2300;51.874;8.430;2023-12-20T03:39:20;100519.44;;;5.47;100.00
4576;BME280;2300;51.874;8.430;2023-12-20T03:41:47;100522.63;;;5.57;100.00
4576;BME280;2300;51.874;8.430;2023-12-20T03:44:14;100527.03;;;5.58;100.00
4576;BME280;2300;51.874;8.430;2023-12-20T03:46:40;100523.69;;;5.62;100.00
4576;BME280;2300;51.874;8.430;2023-12-20T03:49:08;100522.19;;;5.60;100.00
4576;BME280;2300;51.874;8.430;2023-12-20T03:51:35;100519.31;;;5.68;100.00
4576;BME280;2300;51.874;8.430;2023-12-20T03:54:01;100522.81;;;5.55;100.00
4576;BME280;2300;51.874;8.430;2023-12-20T03:56:28;100513.63;;;5.63;100.00
4576;BME280;2300;51.874;8.430;2023-12-20T03:58:55;100516.97;;;5.58;100.00
4576;BME280;2300;51.874;8.430;2023-12-20T04:01:21;100508.56;;;5.53;100.00
4576;BME280;2300;51.874;8.430;2023-12-20T04:03:48;100502.69;;;5.50;100.00
4576;BME280;2300;51.874;8.430;2023-12-20T04:06:17;100511.47;;;5.45;100.00
4576;BME280;2300;51.874;8.430;2023-12-20T04:08:44;100499.59;;;5.59;100.00
4576;BME280;2300;51.874;8.430;2023-12-20T04:11:11;100505.03;;;5.59;100.00
4576;BME280;2300;51.874;8.430;2023-12-20T04:13:37;100512.38;;;5.59;100.00
4576;BME280;2300;51.874;8.430;2023-12-20T04:16:04;100507.72;;;5.53;100.00
4576;BME280;2300;51.874;8.430;2023-12-20T04:18:31;100503.09;;;5.47;100.00
4576;BME280;2300;51.874;8.430;2023-12-20T04:20:57;100496.38;;;5.43;100.00
4576;BME280;2300;51.874;8.430;2023-12-20T04:23:25;100495.78;;;5.47;100.00
4576;BME280;2300;51.874;8.430;2023-12-20T04:25:53;100494.09;;;5.46;100.00
4576;BME280;2300;51.874;8.430;2023-12-20T04:28:20;100464.06;;;5.26;100.00
4576;BME280;2300;51.874;8.430;2023-12-20T04:30:46;100454.16;;;5.19;100.00
4576;BME280;2300;51.874;8.430;2023-12-20T04:33:13;100490.50;;;5.46;100.00
4576;BME280;2300;51.874;8.430;2023-12-20T04:35:39;100500.59;;;5.52;100.00
4576;BME280;2300;51.874;8.430;2023-12-20T04:38:08;100482.72;;;5.36;100.00
4576;BME280;2300;51.874;8.430;2023-12-20T04:40:36;100506.47;;;5.55;100.00
4576;BME280;2300;51.874;8.430;2023-12-20T04:43:03;100496.41;;;5.56;100.00
4576;BME280;2300;51.874;8.430;2023-12-20T04:45:29;100495.16;;;5.52;100.00
4576;BME280;2300;51.874;8.430;2023-12-20T04:47:56;100501.03;;;5.55;100.00
4576;BME280;2300;51.874;8.430;2023-12-20T04:50:23;100491.38;;;5.53;100.00
4576;BME280;2300;51.874;8.430;2023-12-20T04:52:49;100497.44;;;5.55;100.00
4576;BME280;2300;51.874;8.430;2023-12-20T04:55:16;100497.69;;;5.60;100.00
4576;BME280;2300;51.874;8.430;2023-12-20T04:57:44;100492.63;;;5.50;100.00
4576;BME280;2300;51.874;8.430;2023-12-20T05:00:12;100497.69;;;5.53;100.00
4576;BME280;2300;51.874;8.430;2023-12-20T05:02:40;100467.47;;;5.42;100.00
4576;BME280;2300;51.874;8.430;2023-12-20T05:05:08;100492.22;;;5.53;100.00
4576;BME280;2300;51.874;8.430;2023-12-20T05:07:34;100494.38;;;5.64;100.00
4576;BME280;2300;51.874;8.430;2023-12-20T05:10:02;100494.38;;;5.64;100.00
4576;BME280;2300;51.874;8.430;2023-12-20T05:12:29;100485.34;;;5.64;100.00
4576;BME280;2300;51.874;8.430;2023-12-20T05:14:58;100492.00;;;5.55;100.00
4576;BME280;2300;51.874;8.430;2023-12-20T05:17:24;100496.03;;;5.59;100.00
4576;BME280;2300;51.874;8.430;2023-12-20T05:19:51;100501.47;;;5.59;100.00
4576;BME280;2300;51.874;8.430;2023-12-20T05:22:18;100494.94;;;5.60;99.84
4576;BME280;2300;51.874;8.430;2023-12-20T05:24:44;100472.09;;;5.48;99.75
4576;BME280;2300;51.874;8.430;2023-12-20T05:27:10;100479.22;;;5.55;99.59
4576;BME280;2300;51.874;8.430;2023-12-20T05:29:37;100484.25;;;5.52;100.00
4576;BME280;2300;51.874;8.430;2023-12-20T05:32:06;100480.72;;;5.58;99.79
4576;BME280;2300;51.874;8.430;2023-12-20T05:34:32;100476.97;;;5.59;100.00
4576;BME280;2300;51.874;8.430;2023-12-20T05:36:59;100475.03;;;5.53;99.66
4576;BME280;2300;51.874;8.430;2023-12-20T05:39:26;100489.94;;;5.57;99.53
4576;BME280;2300;51.874;8.430;2023-12-20T05:41:53;100496.44;;;5.62;99.79
4576;BME280;2300;51.874;8.430;2023-12-20T05:44:20;100499.81;;;5.64;99.71
4576;BME280;2300;51.874;8.430;2023-12-20T05:46:46;100495.38;;;5.57;99.89
4576;BME280;2300;51.874;8.430;2023-12-20T05:49:14;100507.53;;;5.61;99.77
4576;BME280;2300;51.874;8.430;2023-12-20T05:51:41;100498.75;;;5.65;99.51
4576;BME280;2300;51.874;8.430;2023-12-20T05:54:07;100491.03;;;5.69;99.40
4576;BME280;2300;51.874;8.430;2023-12-20T05:56:34;100493.53;;;5.70;99.32
4576;BME280;2300;51.874;8.430;2023-12-20T05:59:01;100497.69;;;5.60;99.05
4576;BME280;2300;51.874;8.430;2023-12-20T06:01:27;100497.28;;;5.63;99.16
4576;BME280;2300;51.874;8.430;2023-12-20T06:03:54;100498.97;;;5.64;98.90
4576;BME280;2300;51.874;8.430;2023-12-20T06:06:23;100500.41;;;5.60;99.03
4576;BME280;2300;51.874;8.430;2023-12-20T06:08:50;100504.44;;;5.64;98.90
4576;BME280;2300;51.874;8.430;2023-12-20T06:11:16;100513.03;;;5.67;98.86
4576;BME280;2300;51.874;8.430;2023-12-20T06:13:43;100518.69;;;5.72;99.14
4576;BME280;2300;51.874;8.430;2023-12-20T06:16:09;100509.44;;;5.67;99.18
4576;BME280;2300;51.874;8.430;2023-12-20T06:18:36;100506.28;;;5.57;100.00
4576;BME280;2300;51.874;8.430;2023-12-20T06:21:03;100511.31;;;5.53;100.00
4576;BME280;2300;51.874;8.430;2023-12-20T06:23:34;100503.56;;;5.57;100.00
4576;BME280;2300;51.874;8.430;2023-12-20T06:26:00;100502.69;;;5.50;100.00
4576;BME280;2300;51.874;8.430;2023-12-20T06:28:27;100503.94;;;5.47;100.00
4576;BME280;2300;51.874;8.430;2023-12-20T06:30:53;100505.16;;;5.45;100.00
4576;BME280;2300;51.874;8.430;2023-12-20T06:33:20;100509.59;;;5.46;100.00
4576;BME280;2300;51.874;8.430;2023-12-20T06:35:48;100512.31;;;5.46;100.00
4576;BME280;2300;51.874;8.430;2023-12-20T06:38:14;100499.91;;;5.37;100.00
4576;BME280;2300;51.874;8.430;2023-12-20T06:40:42;100507.72;;;5.53;100.00
4576;BME280;2300;51.874;8.430;2023-12-20T06:43:09;100507.75;;;5.59;100.00
4576;BME280;2300;51.874;8.430;2023-12-20T06:45:35;100495.78;;;5.47;100.00
4576;BME280;2300;51.874;8.430;2023-12-20T06:48:02;100494.50;;;5.50;100.00
4576;BME280;2300;51.874;8.430;2023-12-20T06:50:29;100490.31;;;5.47;100.00
4576;BME280;2300;51.874;8.430;2023-12-20T06:52:55;100496.59;;;5.48;100.00
4576;BME280;2300;51.874;8.430;2023-12-20T06:55:22;100458.59;;;5.26;100.00
4576;BME280;2300;51.874;8.430;2023-12-20T06:57:50;100491.78;;;5.50;100.00
4576;BME280;2300;51.874;8.430;2023-12-20T07:00:17;100487.59;;;5.47;100.00
4576;BME280;2300;51.874;8.430;2023-12-20T07:02:45;100495.81;;;5.54;100.00
4576;BME280;2300;51.874;8.430;2023-12-20T07:05:12;100492.84;;;5.55;100.00
4576;BME280;2300;51.874;8.430;2023-12-20T07:07:42;100501.88;;;5.56;100.00
4576;BME280;2300;51.874;8.430;2023-12-20T07:10:08;100498.75;;;5.59;99.63
4576;BME280;2300;51.874;8.430;2023-12-20T07:12:35;100502.28;;;5.53;99.55
4576;BME280;2300;51.874;8.430;2023-12-20T07:15:04;100507.31;;;5.56;99.46
4576;BME280;2300;51.874;8.430;2023-12-20T07:17:31;100509.19;;;5.55;99.24
4576;BME280;2300;51.874;8.430;2023-12-20T07:19:58;100508.19;;;5.63;99.04
4576;BME280;2300;51.874;8.430;2023-12-20T07:22:28;100501.88;;;5.56;98.85
4576;BME280;2300;51.874;8.430;2023-12-20T07:24:55;100477.13;;;5.51;98.69
4576;BME280;2300;51.874;8.430;2023-12-20T07:27:21;100501.69;;;5.64;98.57
4576;BME280;2300;51.874;8.430;2023-12-20T07:29:48;100513.22;;;5.66;98.26
4576;BME280;2300;51.874;8.430;2023-12-20T07:32:16;100504.81;;;5.61;98.23
4576;BME280;2300;51.874;8.430;2023-12-20T07:34:42;100492.22;;;5.53;97.91
4576;BME280;2300;51.874;8.430;2023-12-20T07:37:09;100445.44;;;5.37;97.85
4576;BME280;2300;51.874;8.430;2023-12-20T07:39:37;100488.31;;;5.69;97.79
4576;BME280;2300;51.874;8.430;2023-12-20T07:42:05;100490.81;;;5.64;97.03
4576;BME280;2300;51.874;8.430;2023-12-20T07:44:31;100481.53;;;5.52;96.50
4576;BME280;2300;51.874;8.430;2023-12-20T07:46:58;100488.69;;;5.66;96.57
4576;BME280;2300;51.874;8.430;2023-12-20T07:49:27;100477.34;;;5.49;96.75
4576;BME280;2300;51.874;8.430;2023-12-20T07:51:54;100499.59;;;5.66;96.67
4576;BME280;2300;51.874;8.430;2023-12-20T07:54:21;100502.75;;;5.63;96.68
4576;BME280;2300;51.874;8.430;2023-12-20T07:56:48;100500.25;;;5.68;96.25
4576;BME280;2300;51.874;8.430;2023-12-20T07:59:15;100511.38;;;5.73;96.29
4576;BME280;2300;51.874;8.430;2023-12-20T08:01:41;100506.34;;;5.70;95.74
4576;BME280;2300;51.874;8.430;2023-12-20T08:04:08;100503.16;;;5.66;96.15
4576;BME280;2300;51.874;8.430;2023-12-20T08:06:36;100504.66;;;5.69;95.49
4576;BME280;2300;51.874;8.430;2023-12-20T08:09:02;100503.13;;;5.60;95.71
4576;BME280;2300;51.874;8.430;2023-12-20T08:11:29;100497.72;;;5.66;95.83
4576;BME280;2300;51.874;8.430;2023-12-20T08:13:56;100507.16;;;5.77;95.69
4576;BME280;2300;51.874;8.430;2023-12-20T08:16:22;100501.91;;;5.75;95.63
4576;BME280;2300;51.874;8.430;2023-12-20T08:18:48;100502.38;;;5.79;95.85
4576;BME280;2300;51.874;8.430;2023-12-20T08:21:15;100503.59;;;5.70;96.10
4576;BME280;2300;51.874;8.430;2023-12-20T08:23:43;100492.94;;;5.75;96.77
4576;BME280;2300;51.874;8.430;2023-12-20T08:26:10;100498.16;;;5.70;96.72
4576;BME280;2300;51.874;8.430;2023-12-20T08:28:37;100495.59;;;5.62;96.78
4576;BME280;2300;51.874;8.430;2023-12-20T08:31:04;100495.59;;;5.62;97.41
4576;BME280;2300;51.874;8.430;2023-12-20T08:33:30;100492.91;;;5.68;97.57
4576;BME280;2300;51.874;8.430;2023-12-20T08:35:57;100491.03;;;5.69;97.74
4576;BME280;2300;51.874;8.430;2023-12-20T08:38:23;100497.94;;;5.65;97.40
4576;BME280;2300;51.874;8.430;2023-12-20T08:40:51;100482.03;;;5.75;97.33
4576;BME280;2300;51.874;8.430;2023-12-20T08:43:17;100483.47;;;5.71;97.33
4576;BME280;2300;51.874;8.430;2023-12-20T08:45:44;100477.78;;;5.66;97.37
4576;BME280;2300;51.874;8.430;2023-12-20T08:48:10;100479.09;;;5.70;96.97
4576;BME280;2300;51.874;8.430;2023-12-20T08:50:37;100484.97;;;5.80;97.26
4576;BME280;2300;51.874;8.430;2023-12-20T08:53:04;100486.03;;;5.79;96.76
4576;BME280;2300;51.874;8.430;2023-12-20T08:55:30;100474.06;;;5.80;96.87
4576;BME280;2300;51.874;8.430;2023-12-20T08:57:58;100477.19;;;5.77;96.71
4576;BME280;2300;51.874;8.430;2023-12-20T09:00:25;100482.47;;;5.85;96.89
4576;BME280;2300;51.874;8.430;2023-12-20T09:02:53;100481.19;;;5.81;96.54
4576;BME280;2300;51.874;8.430;2023-12-20T09:05:21;100471.34;;;5.80;96.43
4576;BME280;2300;51.874;8.430;2023-12-20T09:07:49;100476.81;;;5.80;96.77
4576;BME280;2300;51.874;8.430;2023-12-20T09:10:15;100466.50;;;5.82;96.69
4576;BME280;2300;51.874;8.430;2023-12-20T09:12:47;100475.13;;;5.79;97.00
4576;BME280;2300;51.874;8.430;2023-12-20T09:15:15;100465.06;;;5.86;97.06
4576;BME280;2300;51.874;8.430;2023-12-20T09:17:41;100460.88;;;5.84;97.61
4576;BME280;2300;51.874;8.430;2023-12-20T09:20:09;100454.78;;;5.82;98.13
4576;BME280;2300;51.874;8.430;2023-12-20T09:22:36;100455.44;;;5.90;98.18
4576;BME280;2300;51.874;8.430;2023-12-20T09:25:04;100451.63;;;5.91;98.16
4576;BME280;2300;51.874;8.430;2023-12-20T09:27:30;100439.47;;;5.87;97.99
4576;BME280;2300;51.874;8.430;2023-12-20T09:29:57;100439.47;;;5.87;98.23
4576;BME280;2300;51.874;8.430;2023-12-20T09:32:25;100442.22;;;5.94;98.09
4576;BME280;2300;51.874;8.430;2023-12-20T09:34:51;100441.19;;;5.95;98.08
4576;BME280;2300;51.874;8.430;2023-12-20T09:37:18;100434.25;;;5.99;97.75
4576;BME280;2300;51.874;8.430;2023-12-20T09:39:44;100432.38;;;5.99;97.93
4576;BME280;2300;51.874;8.430;2023-12-20T09:42:11;100433.22;;;6.00;97.96
4576;BME280;2300;51.874;8.430;2023-12-20T09:44:43;100435.31;;;6.11;98.20
4576;BME280;2300;51.874;8.430;2023-12-20T09:47:09;100418.94;;;5.98;97.96
4576;BME280;2300;51.874;8.430;2023-12-20T09:49:38;100396.28;;;5.97;98.08
4576;BME280;2300;51.874;8.430;2023-12-20T09:52:05;100415.59;;;6.09;98.29
4576;BME280;2300;51.874;8.430;2023-12-20T09:54:34;100411.81;;;6.03;98.03
4576;BME280;2300;51.874;8.430;2023-12-20T09:57:01;100416.44;;;6.09;98.57
4576;BME280;2300;51.874;8.430;2023-12-20T09:59:31;100413.91;;;6.28;98.59
4576;BME280;2300;51.874;8.430;2023-12-20T10:01:57;100414.34;;;6.25;97.83
4576;BME280;2300;51.874;8.430;2023-12-20T10:04:26;100418.09;;;6.17;98.75
4576;BME280;2300;51.874;8.430;2023-12-20T10:06:54;100429.00;;;6.24;98.45
4576;BME280;2300;51.874;8.430;2023-12-20T10:09:21;100414.31;;;6.18;98.62
4576;BME280;2300;51.874;8.430;2023-12-20T10:11:48;100411.19;;;6.14;99.02
4576;BME280;2300;51.874;8.430;2023-12-20T10:14:16;100426.09;;;6.25;98.96
4576;BME280;2300;51.874;8.430;2023-12-20T10:16:43;100418.97;;;6.04;98.63
4576;BME280;2300;51.874;8.430;2023-12-20T10:19:10;100410.16;;;6.15;99.44
4576;BME280;2300;51.874;8.430;2023-12-20T10:21:36;100392.94;;;6.08;99.20
4576;BME280;2300;51.874;8.430;2023-12-20T10:24:05;100405.94;;;6.19;98.37
4576;BME280;2300;51.874;8.430;2023-12-20T10:26:32;100396.72;;;6.14;98.42
4576;BME280;2300;51.874;8.430;2023-12-20T10:29:00;100403.44;;;6.11;98.52
4576;BME280;2300;51.874;8.430;2023-12-20T10:31:29;100392.53;;;6.25;97.82
4576;BME280;2300;51.874;8.430;2023-12-20T10:33:57;100395.00;;;6.33;97.55
4576;BME280;2300;51.874;8.430;2023-12-20T10:36:25;100391.69;;;6.31;97.49
4576;BME280;2300;51.874;8.430;2023-12-20T10:38:53;100383.91;;;6.28;97.63
4576;BME280;2300;51.874;8.430;2023-12-20T10:41:25;100387.47;;;6.28;97.54
4576;BME280;2300;51.874;8.430;2023-12-20T10:43:55;100368.84;;;6.05;98.35
4576;BME280;2300;51.874;8.430;2023-12-20T10:46:22;100387.06;;;6.25;98.03
4576;BME280;2300;51.874;8.430;2023-12-20T10:48:51;100378.03;;;6.17;98.24
4576;BME280;2300;51.874;8.430;2023-12-20T10:51:20;100377.19;;;6.17;98.21
4576;BME280;2300;51.874;8.430;2023-12-20T10:53:48;100393.34;;;6.18;99.25
4576;BME280;2300;51.874;8.430;2023-12-20T10:56:16;100368.84;;;6.05;99.12
4576;BME280;2300;51.874;8.430;2023-12-20T10:58:45;100382.44;;;6.18;98.63
4576;BME280;2300;51.874;8.430;2023-12-20T11:01:13;100380.56;;;6.19;98.81
4576;BME280;2300;51.874;8.430;2023-12-20T11:03:43;100384.34;;;6.31;98.80
4576;BME280;2300;51.874;8.430;2023-12-20T11:06:18;100377.41;;;6.35;98.98
4576;BME280;2300;51.874;8.430;2023-12-20T11:08:51;100377.81;;;6.39;98.38
4576;BME280;2300;51.874;8.430;2023-12-20T11:11:23;100374.44;;;6.43;97.82
4576;BME280;2300;51.874;8.430;2023-12-20T11:13:58;100376.53;;;6.48;97.74
4576;BME280;2300;51.874;8.430;2023-12-20T11:16:26;100373.63;;;6.36;97.58
4576;BME280;2300;51.874;8.430;2023-12-20T11:18:52;100384.09;;;6.39;97.85
4576;BME280;2300;51.874;8.430;2023-12-20T11:21:19;100389.56;;;6.46;98.46
4576;BME280;2300;51.874;8.430;2023-12-20T11:23:45;100392.06;;;6.47;98.78
4576;BME280;2300;51.874;8.430;2023-12-20T11:26:15;100379.47;;;6.53;98.44
4576;BME280;2300;51.874;8.430;2023-12-20T11:28:42;100380.72;;;6.50;98.04
4576;BME280;2300;51.874;8.430;2023-12-20T11:31:14;100383.00;;;6.60;97.91
4576;BME280;2300;51.874;8.430;2023-12-20T11:33:40;100371.28;;;6.53;98.02
4576;BME280;2300;51.874;8.430;2023-12-20T11:36:13;100371.88;;;6.68;97.50
4576;BME280;2300;51.874;8.430;2023-12-20T11:38:53;100371.91;;;6.55;97.81
4576;BME280;2300;51.874;8.430;2023-12-20T11:41:22;100362.22;;;6.66;97.18
4576;BME280;2300;51.874;8.430;2023-12-20T11:43:53;100347.53;;;6.67;97.19
4576;BME280;2300;51.874;8.430;2023-12-20T11:46:21;100344.22;;;6.58;97.24
4576;BME280;2300;51.874;8.430;2023-12-20T11:48:48;100334.75;;;6.54;97.05
4576;BME280;2300;51.874;8.430;2023-12-20T11:51:15;100338.56;;;6.46;97.55
4576;BME280;2300;51.874;8.430;2023-12-20T11:53:42;100340.00;;;6.49;97.46
4576;BME280;2300;51.874;8.430;2023-12-20T11:56:10;100332.47;;;6.51;97.41
4576;BME280;2300;51.874;8.430;2023-12-20T11:58:37;100322.38;;;6.58;97.27
4576;BME280;2300;51.874;8.430;2023-12-20T12:01:04;100317.31;;;6.68;97.12
4576;BME280;2300;51.874;8.430;2023-12-20T12:03:34;100326.69;;;6.85;95.89
4576;BME280;2300;51.874;8.430;2023-12-20T12:06:01;100317.03;;;6.76;95.90
4576;BME280;2300;51.874;8.430;2023-12-20T12:08:29;100312.19;;;6.85;95.60
4576;BME280;2300;51.874;8.430;2023-12-20T12:10:56;100309.72;;;6.70;95.41
4576;BME280;2300;51.874;8.430;2023-12-20T12:13:23;100316.19;;;6.76;96.06
4576;BME280;2300;51.874;8.430;2023-12-20T12:15:52;100322.47;;;6.89;95.77
4576;BME280;2300;51.874;8.430;2023-12-20T12:18:19;100320.56;;;6.90;95.31
4576;BME280;2300;51.874;8.430;2023-12-20T12:20:47;100310.47;;;6.97;94.91
4576;BME280;2300;51.874;8.430;2023-12-20T12:23:14;100325.50;;;7.13;94.87
4576;BME280;2300;51.874;8.430;2023-12-20T12:25:40;100325.13;;;7.09;94.23
4576;BME280;2300;51.874;8.430;2023-12-20T12:28:07;100313.75;;;7.12;94.27
4576;BME280;2300;51.874;8.430;2023-12-20T12:30:34;100329.56;;;7.03;93.65
4576;BME280;2300;51.874;8.430;2023-12-20T12:33:01;100321.09;;;7.12;93.29
4576;BME280;2300;51.874;8.430;2023-12-20T12:35:27;100312.53;;;7.01;94.19
4576;BME280;2300;51.874;8.430;2023-12-20T12:37:58;100300.84;;;6.94;93.96
4576;BME280;2300;51.874;8.430;2023-12-20T12:40:25;100297.66;;;6.97;93.46
4576;BME280;2300;51.874;8.430;2023-12-20T12:42:52;100302.94;;;6.92;94.13
4576;BME280;2300;51.874;8.430;2023-12-20T12:45:18;100303.09;;;7.04;93.56
4576;BME280;2300;51.874;8.430;2023-12-20T12:47:45;100297.56;;;7.11;93.62
4576;BME280;2300;51.874;8.430;2023-12-20T12:50:11;100299.66;;;7.15;92.77
4576;BME280;2300;51.874;8.430;2023-12-20T12:52:38;100302.81;;;7.12;92.72
4576;BME280;2300;51.874;8.430;2023-12-20T12:55:07;100293.63;;;7.07;91.89
4576;BME280;2300;51.874;8.430;2023-12-20T12:57:33;100299.06;;;7.07;92.25
4576;BME280;2300;51.874;8.430;2023-12-20T13:00:00;100304.16;;;6.96;92.01
4576;BME280;2300;51.874;8.430;2023-12-20T13:02:28;100293.25;;;6.96;92.45
4576;BME280;2300;51.874;8.430;2023-12-20T13:04:53;100284.00;;;6.97;91.65
4576;BME280;2300;51.874;8.430;2023-12-20T13:07:20;100290.28;;;7.05;91.04
4576;BME280;2300;51.874;8.430;2023-12-20T13:09:46;100299.66;;;7.15;91.14
4576;BME280;2300;51.874;8.430;2023-12-20T13:12:14;100284.72;;;7.18;90.55
4576;BME280;2300;51.874;8.430;2023-12-20T13:14:41;100282.84;;;7.18;90.54
4576;BME280;2300;51.874;8.430;2023-12-20T13:17:08;100290.91;;;7.31;90.51